Ladd AAF Airfield
PAFB : now visible

Airfield :











YOU CAN JOIN US ON...

 
LOGIN :

Register | Disclaimer

   EN    FR    IT 

 









Legend :    VFR   Marginal VFR   IFR   Intensive IFR   Very Intensive IFR
Visi :
Ceiling :
>= 8 km
>= 3000ft
5 to 8 km
1000 to 3000 ft
1500m to 5 km
500 to 1000 ft
800 to 1500m
200 to 500 ft
< 800m
< 200 ft
Symbols :   Thunderstorms  Fog  Heavy snow  Heavy precipitations  Wind > 20 kt






- Airport Elevation : 454 ft
- IATA code : FBK


PAFB - Ladd AAF

CURRENT METAR :
  • 250055Z 22003KT 10SM FEW070 BKN200 30/13 A2985 RMK AO2A SLP111 FU VC ALQDS T02970130 $

EXPIRED METARs :
  • 242355Z 23003KT 6SM FU FEW020 SCT120 SCT200 29/15 A2986 RMK AO2A SLP115 T02920149 10296 20225 57012
  • 242314Z VRB04KT 6SM FU FEW020 SCT120 SCT200 29/16 A2987 RMK SLP118
  • 242255Z 26003KT 6SM FU FEW020 SCT120 SCT200 30/16 A2987 RMK AO2A SLP118 T02950156
  • 242155Z 18003KT 6SM FU FEW020 SCT120 SCT200 28/15 A2988 RMK AO2A SLP122 T02830149
  • 242055Z 00000KT 6SM FU FEW020 SCT120 SCT200 27/16 A2989 RMK AO2A SLP125 T02670160 57010

TAF TAF PAFB
Valid from the 24 at 22:00 until the 26 at 04:00 UTC


242200Z 2422/2604 VRB06KT 9000 FU SCT060 BKN200 QNH2990INS
BECMG 2423/2424 VRB06KT 9000 FU VCTS SCT060CB BKN120 QNH2986INS
BECMG 2505/2506 VRB06KT 9999 NSW SCT040 BKN100 QNH2983INS
TEMPO 2508/2513 18010G15KT 9000 -SHRA FEW030 SCT050 BKN120
BECMG 2513/2514 VRB06KT 9999 VCSH SCT040 BKN100 QNH2983INS TX31/2500Z TN16/2514Z
PAZA FIR / North America



MET'MAP, your aeronautical weather chart ! - Copyright ORBIFLY December 2007 - Disclaimer

ORBIFLY MET'MAP TEAM :

Programming & Development : Alexandra Zaïnal
Original concept : Baudouin d'Aumeries
Technical & hardware support : Manuel Goepfert
Assistance : Marc-Olivier Méhu




SOURCES & CREDITS :

   NOAA       Earth
Advisory